Time;durP1;ratioP1;P1;durP2;ratioP2;P2;SDS_P1;SDS_P2;PMS_P1;PMS_P2;Temp;Humidity;BMP_temperature;BMP_pressure;BME280_temperature;BME280_humidity;BME280_pressure;Samples;Min_cycle;Max_cycle;Signal;HPM_P1;HPM_P2
2022/07/21 00:02:06;;;;;;;10.50;3.70;;;;;;;21.16;52.60;100518.02;106097;1273;24399;-66
2022/07/21 00:04:38;;;;;;;13.80;3.20;;;;;;;21.11;52.77;100519.22;106134;1273;26449;-66
2022/07/21 00:07:10;;;;;;;11.20;3.30;;;;;;;21.05;52.82;100518.00;106127;1272;22543;-67
2022/07/21 00:09:42;;;;;;;9.60;3.40;;;;;;;21.00;53.06;100511.46;106183;1273;22559;-67
2022/07/21 00:12:14;;;;;;;11.40;3.40;;;;;;;20.94;53.11;100511.64;105938;1273;24221;-66
2022/07/21 00:14:46;;;;;;;12.30;4.00;;;;;;;20.91;53.23;100509.04;105730;1273;24036;-67
2022/07/21 00:17:17;;;;;;;12.40;3.30;;;;;;;20.87;53.39;100507.05;105673;1273;22554;-65
2022/07/21 00:19:49;;;;;;;9.40;3.10;;;;;;;20.83;53.52;100503.56;105697;1273;22611;-66
2022/07/21 00:22:20;;;;;;;14.20;3.70;;;;;;;20.80;53.59;100500.12;105848;1273;22563;-65
2022/07/21 00:24:52;;;;;;;8.40;2.60;;;;;;;20.76;53.70;100494.10;105628;1273;22548;-66
2022/07/21 00:27:23;;;;;;;13.00;3.40;;;;;;;20.71;53.89;100487.48;106104;1273;22740;-65
2022/07/21 00:29:55;;;;;;;12.00;3.60;;;;;;;20.67;53.82;100483.33;105604;1273;25251;-66
2022/07/21 00:32:26;;;;;;;13.00;3.50;;;;;;;20.63;54.00;100478.11;105821;1273;22567;-66
2022/07/21 00:34:59;;;;;;;13.50;3.50;;;;;;;20.59;54.10;100473.06;105681;1273;22555;-65
2022/07/21 00:37:30;;;;;;;11.80;3.00;;;;;;;20.54;54.30;100479.64;105786;1272;22538;-66
2022/07/21 00:40:02;;;;;;;12.90;3.50;;;;;;;20.49;54.27;100479.13;105658;1273;25439;-65
2022/07/21 00:42:35;;;;;;;10.70;2.90;;;;;;;20.47;54.45;100479.98;105895;1273;22532;-65
2022/07/21 00:45:08;;;;;;;11.80;3.40;;;;;;;20.42;54.68;100478.83;105750;1273;22557;-64
2022/07/21 00:47:40;;;;;;;9.80;3.50;;;;;;;20.39;54.69;100475.54;105919;1273;25428;-66
2022/07/21 00:50:14;;;;;;;10.20;3.50;;;;;;;20.36;54.68;100475.48;105902;1270;22540;-66
2022/07/21 00:52:46;;;;;;;13.70;3.90;;;;;;;20.33;54.85;100475.85;108508;1263;23214;-50
2022/07/21 00:55:19;;;;;;;13.70;3.00;;;;;;;20.30;54.88;100474.76;109650;1273;22543;-50
2022/07/21 00:57:52;;;;;;;13.60;4.10;;;;;;;20.28;55.06;100478.76;109694;1271;22450;-52
2022/07/21 01:00:26;;;;;;;12.10;4.00;;;;;;;20.26;55.16;100481.18;109697;1271;22430;-51
2022/07/21 01:02:59;;;;;;;11.40;3.30;;;;;;;20.22;55.33;100483.30;109674;1274;22451;-53
2022/07/21 01:05:32;;;;;;;11.70;3.30;;;;;;;20.19;55.29;100483.00;109681;1273;23257;-54
2022/07/21 01:08:03;;;;;;;13.60;3.60;;;;;;;20.16;55.52;100482.52;109679;1273;22424;-53
2022/07/21 01:10:35;;;;;;;10.70;3.30;;;;;;;20.11;55.65;100488.76;109678;1271;22511;-54
2022/07/21 01:13:06;;;;;;;14.30;4.30;;;;;;;20.04;55.74;100487.31;109675;1273;22539;-55
2022/07/21 01:15:38;;;;;;;9.90;3.10;;;;;;;20.01;55.69;100492.10;109694;1273;23278;-56
2022/07/21 01:18:13;;;;;;;12.30;4.60;;;;;;;19.99;55.81;100495.33;109682;1272;22395;-52
2022/07/21 01:20:51;;;;;;;11.70;3.50;;;;;;;19.98;55.89;100494.00;109705;1273;22384;-51
2022/07/21 01:23:23;;;;;;;13.20;4.00;;;;;;;19.94;56.13;100492.52;109692;1273;22391;-53
2022/07/21 01:25:54;;;;;;;12.10;3.60;;;;;;;19.90;56.24;100491.15;109692;1273;22949;-52
2022/07/21 01:28:25;;;;;;;11.20;3.70;;;;;;;19.89;56.09;100491.77;109706;1273;22473;-51
2022/07/21 01:30:57;;;;;;;11.60;4.10;;;;;;;19.88;56.04;100485.65;109682;1273;23632;-50
2022/07/21 01:33:28;;;;;;;14.00;4.60;;;;;;;19.90;56.22;100485.23;109715;1273;22487;-54
2022/07/21 01:35:59;;;;;;;12.90;3.40;;;;;;;19.87;56.45;100482.63;109643;1273;22448;-51
2022/07/21 01:41:30;;;;;;;17.50;4.20;;;;;;;19.77;56.90;100490.86;109078;1279;23116;-55
2022/07/21 01:44:04;;;;;;;13.90;3.40;;;;;;;19.71;56.91;100496.16;109138;1279;22518;-55
2022/07/21 01:46:37;;;;;;;13.60;3.80;;;;;;;19.65;57.12;100500.30;109146;1278;23173;-52
2022/07/21 01:49:09;;;;;;;12.70;3.80;;;;;;;19.59;57.39;100503.08;109178;1278;22544;-53
2022/07/21 01:51:40;;;;;;;12.90;4.00;;;;;;;19.52;57.58;100506.15;109162;1278;22502;-54
2022/07/21 01:54:13;;;;;;;11.30;4.10;;;;;;;19.50;57.50;100511.06;109186;1279;22423;-53
2022/07/21 01:56:45;;;;;;;11.50;3.80;;;;;;;19.51;57.56;100502.45;109173;1279;22469;-52
2022/07/21 01:59:16;;;;;;;12.30;3.80;;;;;;;19.52;57.42;100501.11;109157;1278;22507;-53
2022/07/21 02:01:47;;;;;;;12.40;4.10;;;;;;;19.53;57.49;100497.14;109145;1279;22612;-50
2022/07/21 02:04:19;;;;;;;13.00;4.20;;;;;;;19.53;57.56;100496.01;109202;1278;22237;-53
2022/07/21 02:06:50;;;;;;;14.30;4.20;;;;;;;19.52;57.61;100497.39;109142;1278;22528;-53
2022/07/21 02:09:22;;;;;;;15.50;4.40;;;;;;;19.53;57.72;100492.08;109179;1279;23509;-53
2022/07/21 02:11:54;;;;;;;13.90;4.50;;;;;;;19.50;58.03;100489.23;109207;1278;22515;-55
2022/07/21 02:14:25;;;;;;;16.10;4.30;;;;;;;19.48;58.05;100485.86;109196;1278;22468;-52
2022/07/21 02:16:56;;;;;;;15.80;4.50;;;;;;;19.45;58.13;100484.36;109174;1279;22440;-54
2022/07/21 02:19:28;;;;;;;11.70;4.30;;;;;;;19.43;58.18;100485.67;109489;1271;22503;-50
2022/07/21 02:21:59;;;;;;;13.50;4.70;;;;;;;19.41;58.42;100483.56;109669;1271;22245;-51
2022/07/21 02:24:30;;;;;;;16.10;4.90;;;;;;;19.38;58.53;100487.08;109671;1273;22415;-52
2022/07/21 02:27:01;;;;;;;15.20;4.40;;;;;;;19.33;58.60;100483.63;109676;1273;22444;-52
2022/07/21 02:29:33;;;;;;;15.30;4.20;;;;;;;19.28;58.73;100477.14;109650;1273;22505;-51
2022/07/21 02:32:04;;;;;;;13.20;4.10;;;;;;;19.22;58.95;100482.46;109638;1273;22454;-51
2022/07/21 02:34:35;;;;;;;15.50;4.50;;;;;;;19.16;59.06;100482.59;109687;1272;23170;-52
2022/07/21 02:37:07;;;;;;;13.90;4.10;;;;;;;19.11;59.25;100485.89;109672;1273;22250;-54
2022/07/21 02:39:38;;;;;;;11.70;4.30;;;;;;;19.06;59.39;100482.98;109696;1273;22510;-51
2022/07/21 02:42:09;;;;;;;14.30;5.10;;;;;;;19.00;59.41;100479.64;109648;1273;23418;-54
2022/07/21 02:44:41;;;;;;;10.50;4.00;;;;;;;18.98;59.38;100471.58;109709;1273;22448;-51
2022/07/21 02:47:12;;;;;;;16.80;4.40;;;;;;;18.93;59.54;100478.64;109680;1272;22869;-53
2022/07/21 02:49:44;;;;;;;13.20;4.40;;;;;;;18.86;59.66;100484.64;109674;1271;22397;-51
2022/07/21 02:52:16;;;;;;;14.10;3.90;;;;;;;18.84;59.81;100484.35;109665;1271;22248;-53
2022/07/21 02:54:48;;;;;;;11.10;3.90;;;;;;;18.80;59.88;100482.29;109686;1272;22410;-59
2022/07/21 02:57:19;;;;;;;13.90;4.70;;;;;;;18.74;60.04;100483.89;109663;1273;22436;-53
2022/07/21 02:59:50;;;;;;;11.80;3.80;;;;;;;18.67;60.18;100478.97;109694;1273;22427;-49
2022/07/21 03:02:22;;;;;;;13.20;4.50;;;;;;;18.63;60.15;100478.34;109675;1272;22428;-52
2022/07/21 03:04:53;;;;;;;12.00;4.90;;;;;;;18.56;60.51;100479.69;109685;1273;22231;-54
2022/07/21 03:07:25;;;;;;;13.70;4.50;;;;;;;18.51;60.43;100481.23;109661;1273;22398;-52
2022/07/21 03:09:56;;;;;;;12.80;3.80;;;;;;;18.48;60.55;100477.77;109680;1273;22414;-51
2022/07/21 03:12:27;;;;;;;14.40;4.70;;;;;;;18.46;60.36;100475.27;109684;1273;22414;-53
2022/07/21 03:14:58;;;;;;;12.90;4.40;;;;;;;18.47;60.48;100476.04;109686;1273;22384;-56
2022/07/21 03:17:30;;;;;;;13.80;3.70;;;;;;;18.45;60.74;100476.58;109669;1273;22454;-54
2022/07/21 03:20:01;;;;;;;17.70;5.10;;;;;;;18.42;60.92;100479.77;109693;1271;22468;-54
2022/07/21 03:22:32;;;;;;;14.90;4.70;;;;;;;18.37;61.10;100478.34;109680;1273;22428;-53
2022/07/21 03:25:04;;;;;;;18.40;5.40;;;;;;;18.35;60.97;100472.35;109661;1273;22389;-56
2022/07/21 03:27:37;;;;;;;20.10;5.50;;;;;;;18.36;61.18;100469.52;109675;1273;22451;-55
2022/07/21 03:30:12;;;;;;;25.50;5.70;;;;;;;18.37;61.31;100468.42;109666;1271;22392;-53
2022/07/21 03:32:44;;;;;;;17.10;5.70;;;;;;;18.38;61.57;100466.22;109660;1271;22264;-54
2022/07/21 03:35:15;;;;;;;15.40;5.10;;;;;;;18.38;61.60;100469.04;109666;1273;23744;-53
2022/07/21 03:37:49;;;;;;;14.70;5.20;;;;;;;18.38;61.71;100463.73;109685;1271;22422;-50
2022/07/21 03:40:24;;;;;;;16.80;5.80;;;;;;;18.39;61.75;100465.52;109667;1273;22229;-52
2022/07/21 03:42:57;;;;;;;16.90;5.20;;;;;;;18.41;61.85;100465.58;109669;1271;22592;-53
2022/07/21 03:45:30;;;;;;;13.60;5.50;;;;;;;18.43;62.07;100467.94;109684;1273;22527;-53
2022/07/21 03:48:03;;;;;;;14.80;4.90;;;;;;;18.44;62.20;100465.41;109689;1273;22337;-51
2022/07/21 03:50:35;;;;;;;13.90;5.00;;;;;;;18.45;62.26;100464.33;109676;1273;22445;-54
2022/07/21 03:53:08;;;;;;;15.60;4.80;;;;;;;18.46;62.49;100465.09;109641;1273;23194;-51
2022/07/21 03:55:39;;;;;;;16.30;4.70;;;;;;;18.46;62.72;100472.13;109693;1272;22448;-51
2022/07/21 03:58:10;;;;;;;14.40;5.10;;;;;;;18.46;62.82;100480.46;109633;1273;22542;-53
2022/07/21 04:00:44;;;;;;;14.50;5.80;;;;;;;18.46;62.84;100481.02;109665;1272;22558;-51
2022/07/21 04:03:15;;;;;;;18.90;5.60;;;;;;;18.47;62.95;100485.39;109637;1273;22565;-51
2022/07/21 04:05:47;;;;;;;16.00;6.00;;;;;;;18.47;63.13;100483.08;109701;1273;23170;-53
2022/07/21 04:08:18;;;;;;;17.10;4.70;;;;;;;18.50;63.21;100490.14;109624;1273;22233;-51
2022/07/21 04:10:49;;;;;;;14.40;5.60;;;;;;;18.53;63.17;100490.89;109671;1273;22481;-50
2022/07/21 04:13:21;;;;;;;14.10;5.00;;;;;;;18.56;63.32;100491.98;109695;1271;23208;-54
2022/07/21 04:15:52;;;;;;;19.00;5.90;;;;;;;18.61;63.19;100491.89;109646;1273;22416;-55
2022/07/21 04:18:23;;;;;;;12.50;4.90;;;;;;;18.65;63.40;100498.37;109662;1273;22421;-54
2022/07/21 04:20:56;;;;;;;13.90;5.40;;;;;;;18.69;63.59;100499.06;109655;1273;22413;-51
2022/07/21 04:23:27;;;;;;;15.40;5.00;;;;;;;18.72;63.52;100495.79;109652;1273;22439;-52
2022/07/21 04:25:58;;;;;;;17.80;6.10;;;;;;;18.77;63.70;100497.33;109625;1273;22428;-55
2022/07/21 04:28:30;;;;;;;12.80;5.00;;;;;;;18.81;63.69;100499.19;109637;1273;22531;-53
2022/07/21 04:31:01;;;;;;;15.90;5.80;;;;;;;18.88;63.68;100505.02;109625;1273;22397;-53
2022/07/21 04:33:32;;;;;;;15.30;4.90;;;;;;;18.93;63.80;100508.85;109664;1273;22410;-52
2022/07/21 04:36:04;;;;;;;14.50;5.90;;;;;;;18.99;63.50;100513.82;109580;1274;22378;-53
2022/07/21 04:38:35;;;;;;;13.20;4.80;;;;;;;19.05;63.22;100506.63;109645;1273;22530;-52
2022/07/21 04:41:07;;;;;;;16.50;5.40;;;;;;;19.13;63.48;100505.33;109632;1271;22396;-54
2022/07/21 04:43:38;;;;;;;16.40;5.50;;;;;;;19.22;63.55;100506.20;109645;1272;22458;-53
2022/07/21 04:46:10;;;;;;;14.90;4.90;;;;;;;19.31;63.61;100506.86;109662;1273;22455;-54
2022/07/21 04:48:41;;;;;;;16.40;6.30;;;;;;;19.44;63.84;100506.52;109671;1273;22423;-52
2022/07/21 04:51:12;;;;;;;15.40;5.90;;;;;;;19.56;63.64;100506.09;109657;1273;22460;-51
2022/07/21 04:53:44;;;;;;;18.50;5.70;;;;;;;19.67;63.55;100512.38;109685;1273;22428;-53
2022/07/21 04:56:15;;;;;;;19.40;6.60;;;;;;;19.80;63.69;100511.73;109646;1273;22417;-51
2022/07/21 04:58:46;;;;;;;13.20;6.00;;;;;;;19.91;63.52;100510.64;109638;1272;22238;-53
2022/07/21 05:01:18;;;;;;;20.60;6.80;;;;;;;20.03;63.38;100508.20;109631;1273;22973;-51
2022/07/21 05:03:49;;;;;;;17.50;6.60;;;;;;;20.18;63.43;100510.65;109691;1271;22421;-50
2022/07/21 05:06:21;;;;;;;17.10;7.20;;;;;;;20.35;63.43;100509.69;109652;1271;23197;-54
2022/07/21 05:08:52;;;;;;;20.20;6.50;;;;;;;20.48;63.46;100513.63;109658;1273;22443;-52
2022/07/21 05:11:24;;;;;;;17.60;5.80;;;;;;;20.57;63.45;100512.03;109607;1273;23182;-52
2022/07/21 05:13:57;;;;;;;19.90;5.30;;;;;;;20.66;63.43;100512.64;109589;1273;23010;-53
2022/07/21 05:16:29;;;;;;;18.20;5.80;;;;;;;20.75;63.26;100511.61;109669;1273;23205;-53
2022/07/21 05:19:00;;;;;;;16.10;6.30;;;;;;;20.87;63.65;100512.00;109662;1273;23136;-51
2022/07/21 05:21:31;;;;;;;17.90;6.00;;;;;;;21.02;63.42;100508.90;109658;1272;22425;-50
2022/07/21 05:24:03;;;;;;;17.90;6.40;;;;;;;21.18;63.13;100504.27;109692;1272;22456;-56
2022/07/21 05:26:34;;;;;;;15.70;6.40;;;;;;;21.32;63.13;100502.15;109692;1273;22482;-53
2022/07/21 05:29:06;;;;;;;18.50;6.40;;;;;;;21.48;63.04;100504.30;109699;1273;22418;-52
2022/07/21 05:31:37;;;;;;;19.30;6.70;;;;;;;21.66;62.70;100502.01;109686;1273;22572;-51
2022/07/21 05:34:09;;;;;;;15.30;5.70;;;;;;;21.81;62.41;100506.60;109716;1273;23180;-50
2022/07/21 05:36:40;;;;;;;15.80;6.10;;;;;;;21.95;62.03;100501.28;109691;1273;22487;-51
2022/07/21 05:39:11;;;;;;;18.00;6.40;;;;;;;22.11;61.88;100504.48;109673;1270;22469;-53
2022/07/21 05:41:42;;;;;;;15.90;5.90;;;;;;;22.25;61.82;100509.96;109717;1273;22514;-49
2022/07/21 05:44:14;;;;;;;16.50;5.90;;;;;;;22.43;61.60;100513.13;109696;1272;22438;-52
2022/07/21 05:46:45;;;;;;;20.80;6.00;;;;;;;22.61;61.19;100513.27;109708;1271;22570;-53
2022/07/21 05:49:17;;;;;;;18.00;6.10;;;;;;;22.76;60.74;100516.77;109665;1272;22560;-51
2022/07/21 05:51:49;;;;;;;14.60;5.00;;;;;;;22.89;60.51;100516.11;109692;1271;22487;-54
2022/07/21 05:54:21;;;;;;;16.30;5.80;;;;;;;23.02;60.12;100514.86;109683;1273;23175;-51
2022/07/21 05:56:53;;;;;;;14.30;5.40;;;;;;;23.14;59.68;100512.36;109650;1273;22495;-50
2022/07/21 05:59:26;;;;;;;21.50;7.70;;;;;;;23.26;59.47;100509.25;109688;1273;22465;-51
2022/07/21 06:01:57;;;;;;;15.60;5.00;;;;;;;23.42;59.45;100509.51;109637;1273;22495;-50
2022/07/21 06:04:30;;;;;;;14.40;4.90;;;;;;;23.56;59.13;100504.91;109676;1273;22456;-50
2022/07/21 06:07:02;;;;;;;17.60;5.00;;;;;;;23.71;59.04;100503.30;109667;1273;22490;-53
2022/07/21 06:09:33;;;;;;;17.50;5.10;;;;;;;23.90;58.69;100506.13;109654;1273;23180;-51
2022/07/21 06:12:04;;;;;;;14.10;4.40;;;;;;;24.04;58.13;100505.23;109674;1271;22439;-52
2022/07/21 06:14:37;;;;;;;17.90;5.10;;;;;;;24.20;58.14;100503.90;109702;1273;22401;-53
2022/07/21 06:17:08;;;;;;;13.80;4.60;;;;;;;24.34;57.58;100507.80;109625;1273;22499;-50
2022/07/21 06:19:40;;;;;;;18.60;4.90;;;;;;;24.47;57.17;100504.19;109664;1273;22438;-51
2022/07/21 06:22:11;;;;;;;14.70;4.60;;;;;;;24.62;56.65;100506.17;109646;1272;22445;-51
2022/07/21 06:24:43;;;;;;;18.30;4.70;;;;;;;24.70;56.40;100503.71;109647;1273;22480;-52
2022/07/21 06:27:14;;;;;;;17.10;5.30;;;;;;;24.82;56.32;100502.84;109663;1272;22925;-53
2022/07/21 06:29:45;;;;;;;17.40;6.10;;;;;;;24.98;56.04;100502.29;109702;1273;22416;-50
2022/07/21 06:32:16;;;;;;;16.20;4.50;;;;;;;25.13;55.47;100498.27;109650;1273;22422;-51
2022/07/21 06:34:48;;;;;;;14.00;4.50;;;;;;;25.25;55.14;100499.90;109714;1272;22423;-52
2022/07/21 06:37:21;;;;;;;15.60;5.40;;;;;;;25.36;54.89;100497.86;109653;1273;22490;-51
2022/07/21 06:39:53;;;;;;;15.60;4.50;;;;;;;25.48;54.24;100502.65;109647;1272;23234;-53
2022/07/21 06:42:25;;;;;;;11.60;4.00;;;;;;;25.58;54.13;100502.86;109671;1272;22455;-54
2022/07/21 06:44:56;;;;;;;13.50;4.70;;;;;;;25.71;54.13;100504.73;109734;1273;22393;-53
2022/07/21 06:47:28;;;;;;;12.70;4.90;;;;;;;25.86;53.48;100504.34;109630;1272;23257;-55
2022/07/21 06:50:02;;;;;;;13.30;4.50;;;;;;;25.95;52.78;100505.92;109632;1273;24152;-51
2022/07/21 06:52:34;;;;;;;15.20;5.00;;;;;;;26.04;52.64;100499.29;109587;1263;93374;-79
2022/07/21 06:55:08;;;;;;;14.80;4.70;;;;;;;26.15;52.31;100499.67;109796;1271;22392;-79
2022/07/21 06:57:40;;;;;;;15.50;4.60;;;;;;;26.24;51.90;100492.73;109786;1271;22541;-79
2022/07/21 07:00:13;;;;;;;15.80;4.10;;;;;;;26.36;51.75;100494.70;109781;1271;22397;-79
2022/07/21 07:02:45;;;;;;;14.20;4.30;;;;;;;26.46;51.32;100496.69;109792;1271;22862;-81
2022/07/21 07:05:17;;;;;;;15.90;5.20;;;;;;;26.53;51.01;100500.41;109763;1271;22418;-80
2022/07/21 07:07:49;;;;;;;15.70;4.70;;;;;;;26.66;50.70;100506.11;109780;1271;22417;-79
2022/07/21 07:10:21;;;;;;;14.80;4.70;;;;;;;26.77;50.49;100500.39;109744;1273;22433;-79
2022/07/21 07:12:52;;;;;;;11.30;3.10;;;;;;;26.86;49.93;100499.58;109732;1271;23087;-79
2022/07/21 07:15:25;;;;;;;11.80;3.50;;;;;;;26.94;49.81;100496.52;109804;1271;22398;-80
2022/07/21 07:17:57;;;;;;;11.70;3.70;;;;;;;27.05;49.30;100491.02;109817;1271;23184;-80
2022/07/21 07:20:28;;;;;;;13.50;3.90;;;;;;;27.16;48.52;100493.27;109730;1273;22442;-80
2022/07/21 07:22:59;;;;;;;13.00;4.40;;;;;;;27.29;48.44;100493.17;109776;1271;22483;-78
2022/07/21 07:25:30;;;;;;;13.90;3.90;;;;;;;27.40;48.07;100495.11;109755;1272;22415;-79
2022/07/21 07:28:02;;;;;;;12.40;3.70;;;;;;;27.51;48.09;100496.73;109683;1273;22225;-79
2022/07/21 07:30:33;;;;;;;12.20;3.00;;;;;;;27.63;47.84;100494.16;109719;1273;22238;-79
2022/07/21 07:33:04;;;;;;;13.70;3.20;;;;;;;27.75;47.28;100493.88;109731;1271;22430;-79
2022/07/21 07:35:35;;;;;;;14.40;3.10;;;;;;;27.86;46.60;100491.30;109796;1271;22441;-80
2022/07/21 07:38:06;;;;;;;12.60;3.40;;;;;;;27.98;46.29;100497.81;109776;1271;22374;-79
2022/07/21 07:40:38;;;;;;;8.80;2.80;;;;;;;28.11;46.29;100499.61;109785;1271;22508;-80
2022/07/21 07:43:10;;;;;;;10.80;3.20;;;;;;;28.21;45.87;100502.15;109761;1271;22423;-79
2022/07/21 07:45:42;;;;;;;8.40;2.40;;;;;;;28.29;45.28;100502.87;109745;1271;22418;-80
2022/07/21 07:48:14;;;;;;;12.20;2.90;;;;;;;28.41;45.41;100504.90;109759;1271;22517;-81
2022/07/21 07:50:45;;;;;;;8.50;3.10;;;;;;;28.50;44.62;100502.18;109794;1271;22394;-83
2022/07/21 07:53:16;;;;;;;10.50;2.90;;;;;;;28.59;44.57;100502.96;109756;1271;22455;-82
2022/07/21 07:55:47;;;;;;;11.80;3.60;;;;;;;28.75;44.44;100492.83;109687;1273;22392;-82
2022/07/21 07:58:18;;;;;;;9.40;3.00;;;;;;;28.86;43.85;100486.80;109812;1270;22423;-83
2022/07/21 08:00:49;;;;;;;8.70;2.90;;;;;;;28.98;43.81;100489.25;109833;1270;22398;-82
2022/07/21 08:03:20;;;;;;;13.00;3.00;;;;;;;29.09;43.33;100488.67;109799;1269;22474;-83
2022/07/21 08:05:52;;;;;;;11.00;2.70;;;;;;;29.19;43.09;100484.76;109719;1271;22392;-83
2022/07/21 08:08:24;;;;;;;13.30;3.70;;;;;;;29.31;42.74;100487.22;109827;1270;22436;-84
2022/07/21 08:10:55;;;;;;;9.70;2.90;;;;;;;29.46;42.69;100484.05;109846;1270;22388;-81
2022/07/21 08:13:27;;;;;;;15.40;3.60;;;;;;;29.56;42.41;100479.93;109877;1269;22504;-81
2022/07/21 08:15:58;;;;;;;10.40;3.10;;;;;;;29.67;42.27;100476.49;109839;1270;22600;-85
2022/07/21 08:18:30;;;;;;;9.10;2.40;;;;;;;29.76;42.04;100477.66;109834;1270;22442;-82
2022/07/21 08:21:02;;;;;;;10.10;2.90;;;;;;;29.83;41.51;100479.77;109827;1270;22402;-81
2022/07/21 08:23:33;;;;;;;10.90;2.60;;;;;;;29.93;41.38;100475.59;109860;1270;22526;-81
2022/07/21 08:26:05;;;;;;;7.60;2.50;;;;;;;30.05;41.01;100469.13;109823;1270;23295;-81
2022/07/21 08:28:37;;;;;;;8.10;2.20;;;;;;;30.17;40.40;100468.67;109865;1270;23073;-82
2022/07/21 08:31:08;;;;;;;7.20;2.30;;;;;;;30.29;40.44;100470.13;109849;1270;23200;-82
2022/07/21 08:33:39;;;;;;;8.90;2.40;;;;;;;30.41;39.89;100467.25;109845;1270;22398;-81
2022/07/21 08:36:11;;;;;;;7.70;2.20;;;;;;;30.53;39.81;100473.14;109849;1270;22410;-82
2022/07/21 08:38:43;;;;;;;15.10;3.90;;;;;;;30.64;39.54;100470.44;109870;1270;22440;-81
2022/07/21 08:41:15;;;;;;;10.90;2.30;;;;;;;30.73;39.20;100471.79;109834;1270;22402;-82
2022/07/21 08:43:47;;;;;;;9.50;2.10;;;;;;;30.80;38.84;100469.80;109858;1270;22481;-82
2022/07/21 08:46:19;;;;;;;7.70;2.00;;;;;;;30.89;38.28;100470.61;109864;1270;22398;-81
2022/07/21 08:48:52;;;;;;;7.40;2.00;;;;;;;31.00;38.27;100466.66;109812;1268;22377;-81
2022/07/21 08:51:24;;;;;;;8.20;1.80;;;;;;;31.11;37.73;100466.94;109831;1270;22412;-81
2022/07/21 08:53:55;;;;;;;6.90;1.90;;;;;;;31.19;37.16;100466.86;109878;1270;23353;-85
2022/07/21 08:56:26;;;;;;;9.20;2.10;;;;;;;31.28;36.99;100472.95;109848;1270;22390;-81
2022/07/21 08:58:57;;;;;;;8.90;1.80;;;;;;;31.36;36.13;100470.89;109840;1270;22389;-85
2022/07/21 09:01:29;;;;;;;8.10;1.80;;;;;;;31.41;36.05;100468.79;109846;1270;22387;-81
2022/07/21 09:04:21;;;;;;;6.30;1.70;;;;;;;31.51;35.77;100468.02;109801;1270;22404;-81
2022/07/21 09:06:55;;;;;;;5.60;1.60;;;;;;;31.56;35.52;100464.50;109838;1270;22380;-82
2022/07/21 09:09:29;;;;;;;7.80;1.80;;;;;;;31.63;35.44;100467.41;109862;1270;22445;-83
2022/07/21 09:12:01;;;;;;;6.80;1.90;;;;;;;31.71;34.76;100456.09;109883;1270;22450;-83
2022/07/21 09:14:35;;;;;;;5.10;1.50;;;;;;;31.81;34.41;100462.06;109870;1270;22441;-82
2022/07/21 09:17:07;;;;;;;8.90;1.50;;;;;;;31.88;33.90;100454.16;109760;1271;22484;-82
2022/07/21 09:19:41;;;;;;;8.60;1.70;;;;;;;31.94;33.67;100447.74;109832;1269;22427;-86
2022/07/21 09:22:18;;;;;;;6.30;1.50;;;;;;;32.00;33.55;100444.64;109790;1270;22569;-88
2022/07/21 09:24:53;;;;;;;6.70;1.40;;;;;;;32.05;33.24;100440.96;109809;1270;23169;-87
2022/07/21 09:27:26;;;;;;;6.30;1.70;;;;;;;32.16;32.88;100438.73;109810;1270;22407;-87
2022/07/21 09:30:00;;;;;;;5.20;1.40;;;;;;;32.23;32.46;100440.98;109845;1270;22471;-89
2022/07/21 09:32:34;;;;;;;5.20;1.20;;;;;;;32.36;32.05;100436.73;109830;1270;22457;-87
2022/07/21 09:35:09;;;;;;;6.80;1.30;;;;;;;32.45;31.95;100433.81;109820;1270;22418;-87
2022/07/21 09:37:42;;;;;;;4.60;1.50;;;;;;;32.54;31.54;100436.67;109804;1270;22454;-87
2022/07/21 09:40:15;;;;;;;6.20;1.30;;;;;;;32.61;31.41;100439.44;109835;1270;22406;-87
2022/07/21 09:42:53;;;;;;;5.60;1.10;;;;;;;32.69;30.76;100432.83;109823;1270;22929;-87
2022/07/21 09:45:27;;;;;;;5.00;1.10;;;;;;;32.80;29.96;100432.34;109820;1270;22501;-87
2022/07/21 09:47:58;;;;;;;4.70;1.10;;;;;;;32.89;29.86;100426.09;109850;1270;22989;-87
2022/07/21 09:50:29;;;;;;;6.30;1.20;;;;;;;32.94;29.95;100425.66;109833;1270;22510;-87
2022/07/21 09:53:02;;;;;;;5.30;1.10;;;;;;;33.03;30.02;100426.05;109799;1270;23713;-87
2022/07/21 09:55:34;;;;;;;4.70;1.10;;;;;;;33.08;29.44;100423.44;109853;1269;22428;-87
2022/07/21 09:58:05;;;;;;;3.00;0.90;;;;;;;33.15;29.04;100427.20;109789;1270;22396;-87
2022/07/21 10:00:36;;;;;;;6.20;1.10;;;;;;;33.19;28.76;100424.69;109830;1270;22418;-87
2022/07/21 10:03:09;;;;;;;5.30;1.00;;;;;;;33.25;28.75;100423.48;109824;1270;22418;-87
2022/07/21 10:05:40;;;;;;;5.50;1.30;;;;;;;33.32;28.76;100418.77;109840;1269;22478;-88
2022/07/21 10:08:13;;;;;;;4.80;1.10;;;;;;;33.40;28.39;100417.98;109811;1270;22422;-87
2022/07/21 10:10:45;;;;;;;5.20;1.10;;;;;;;33.48;28.22;100413.48;109849;1270;22315;-87
2022/07/21 10:13:17;;;;;;;10.60;2.30;;;;;;;33.55;27.92;100402.77;109798;1270;23125;-87
2022/07/21 10:15:49;;;;;;;3.70;1.10;;;;;;;33.62;27.77;100399.83;109799;1270;22848;-86
2022/07/21 10:18:25;;;;;;;5.50;1.30;;;;;;;33.70;28.12;100400.59;109809;1270;23166;-87
2022/07/21 10:21:05;;;;;;;3.70;1.00;;;;;;;33.76;28.18;100398.33;109813;1270;23180;-89
2022/07/21 10:23:48;;;;;;;3.40;0.90;;;;;;;33.85;27.78;100391.42;109833;1270;23250;-87
2022/07/21 10:26:20;;;;;;;3.70;0.90;;;;;;;33.91;27.88;100391.76;109788;1270;22508;-87
2022/07/21 10:28:51;;;;;;;4.50;0.90;;;;;;;33.95;27.47;100393.29;109795;1270;22387;-87
2022/07/21 10:31:25;;;;;;;4.80;0.90;;;;;;;33.96;27.02;100383.94;109804;1270;22397;-87
2022/07/21 10:34:04;;;;;;;8.50;0.90;;;;;;;34.01;26.71;100386.72;109818;1270;22448;-87
2022/07/21 10:36:50;;;;;;;3.60;0.80;;;;;;;34.08;26.75;100385.91;105614;1270;5481306;-88
2022/07/21 10:39:24;;;;;;;1.50;0.50;;;;;;;34.15;26.23;100380.23;109809;1270;22488;-87
2022/07/21 10:42:01;;;;;;;2.70;0.60;;;;;;;34.22;26.32;100380.57;109872;1270;22420;-87
2022/07/21 10:44:52;;;;;;;3.10;0.80;;;;;;;34.31;25.92;100386.72;109829;1270;22573;-87
2022/07/21 10:47:30;;;;;;;4.80;1.00;;;;;;;34.35;25.84;100388.79;109784;1270;22556;-87
2022/07/21 10:50:04;;;;;;;3.40;0.80;;;;;;;34.42;25.59;100390.16;109817;1270;22460;-87
2022/07/21 10:53:00;;;;;;;6.00;1.00;;;;;;;34.47;25.58;100389.42;109827;1270;22494;-88
2022/07/21 10:55:32;;;;;;;4.80;0.90;;;;;;;34.49;25.46;100383.90;109836;1270;22409;-87
2022/07/21 10:58:24;;;;;;;3.60;0.90;;;;;;;34.55;25.29;100383.61;109795;1270;22411;-87
2022/07/21 11:00:59;;;;;;;6.50;1.00;;;;;;;34.65;24.97;100386.35;109826;1270;23180;-87
2022/07/21 11:03:33;;;;;;;5.90;0.80;;;;;;;34.70;24.97;100382.23;109836;1270;22418;-87
2022/07/21 11:06:19;;;;;;;3.40;0.70;;;;;;;34.74;24.25;100383.05;109812;1270;22506;-87
2022/07/21 11:08:52;;;;;;;4.50;1.00;;;;;;;34.80;23.59;100387.39;109836;1270;22511;-87
2022/07/21 11:11:26;;;;;;;5.40;0.80;;;;;;;34.84;23.59;100385.48;109795;1270;22716;-87
2022/07/21 11:14:09;;;;;;;4.90;0.80;;;;;;;34.85;23.60;100389.24;109822;1270;22382;-87
2022/07/21 11:17:03;;;;;;;6.00;0.90;;;;;;;34.82;23.97;100389.27;109801;1269;22515;-87
2022/07/21 11:19:39;;;;;;;6.60;1.10;;;;;;;34.81;23.97;100380.95;109501;1276;22462;-87
2022/07/21 11:22:13;;;;;;;4.50;1.10;;;;;;;34.80;24.07;100380.16;109547;1276;22488;-87
2022/07/21 11:24:46;;;;;;;5.60;1.30;;;;;;;34.83;24.12;100380.59;109596;1276;22451;-87
2022/07/21 11:27:19;;;;;;;6.40;1.00;;;;;;;34.86;24.10;100375.54;109578;1276;22434;-87
2022/07/21 11:29:52;;;;;;;7.30;1.00;;;;;;;34.92;24.13;100374.28;109504;1276;22557;-86
2022/07/21 11:32:24;;;;;;;6.70;1.10;;;;;;;34.99;24.03;100371.70;109527;1276;22448;-87
2022/07/21 11:34:57;;;;;;;8.60;1.00;;;;;;;35.03;23.70;100366.70;109514;1276;23136;-87
2022/07/21 11:37:33;;;;;;;5.50;0.80;;;;;;;35.05;23.57;100363.75;109479;1275;22428;-88
2022/07/21 11:40:07;;;;;;;4.50;0.90;;;;;;;35.10;23.53;100362.23;109491;1276;23231;-87